createdAt,value
2023-05-12T00:01:16.785Z,8.02
2023-05-12T00:03:44.140Z,7.98
2023-05-12T00:06:11.519Z,7.95
2023-05-12T00:08:38.435Z,7.92
2023-05-12T00:11:05.316Z,7.89
2023-05-12T00:13:32.158Z,7.85
2023-05-12T00:15:59.411Z,7.81
2023-05-12T00:18:28.286Z,7.75
2023-05-12T00:20:55.651Z,7.71
2023-05-12T00:23:22.929Z,7.68
2023-05-12T00:25:50.130Z,7.65
2023-05-12T00:28:18.396Z,7.61
2023-05-12T00:30:45.776Z,7.56
2023-05-12T00:33:12.949Z,7.51
2023-05-12T00:35:39.853Z,7.45
2023-05-12T00:38:06.624Z,7.39
2023-05-12T00:40:33.373Z,7.34
2023-05-12T00:43:00.285Z,7.30
2023-05-12T00:45:29.546Z,7.25
2023-05-12T00:47:56.781Z,7.21
2023-05-12T00:50:24.936Z,7.16
2023-05-12T00:52:51.702Z,7.11
2023-05-12T00:55:18.578Z,7.07
2023-05-12T00:57:45.525Z,7.04
2023-05-12T01:00:14.139Z,7.02
2023-05-12T01:02:42.183Z,6.97
2023-05-12T01:05:10.143Z,6.92
2023-05-12T01:07:37.929Z,6.88
2023-05-12T01:10:05.453Z,6.83
2023-05-12T01:12:34.821Z,6.78
2023-05-12T01:15:03.166Z,6.73
2023-05-12T01:17:33.418Z,6.68
2023-05-12T01:20:01.778Z,6.65
2023-05-12T01:22:31.351Z,6.63
2023-05-12T01:25:00.124Z,6.59
2023-05-12T01:27:28.957Z,6.58
2023-05-12T01:29:58.936Z,6.56
2023-05-12T01:32:26.484Z,6.54
2023-05-12T01:34:53.573Z,6.55
2023-05-12T01:37:20.700Z,6.53
2023-05-12T01:39:47.676Z,6.49
2023-05-12T01:42:18.599Z,6.44
2023-05-12T01:44:45.508Z,6.40
2023-05-12T01:47:12.289Z,6.34
2023-05-12T01:49:40.508Z,6.30
2023-05-12T01:52:10.876Z,6.26
2023-05-12T01:54:37.681Z,6.21
2023-05-12T01:57:05.411Z,6.15
2023-05-12T01:59:33.134Z,6.09
2023-05-12T02:02:00.850Z,6.05
2023-05-12T02:04:30.011Z,6.01
2023-05-12T02:06:57.090Z,5.98
2023-05-12T02:09:24.074Z,5.94
2023-05-12T02:11:51.236Z,5.91
2023-05-12T02:14:18.159Z,5.88
2023-05-12T02:16:45.426Z,5.83
2023-05-12T02:19:12.404Z,5.79
2023-05-12T02:21:39.403Z,5.75
2023-05-12T02:24:06.686Z,5.70
2023-05-12T02:26:35.034Z,5.66
2023-05-12T02:29:02.160Z,5.63
2023-05-12T02:31:29.053Z,5.59
2023-05-12T02:33:56.156Z,5.55
2023-05-12T02:36:23.161Z,5.51
2023-05-12T02:38:50.184Z,5.48
2023-05-12T02:41:17.269Z,5.45
2023-05-12T02:43:44.212Z,5.41
2023-05-12T02:46:11.275Z,5.37
2023-05-12T02:48:38.722Z,5.35
2023-05-12T02:51:05.889Z,5.33
2023-05-12T02:53:32.690Z,5.30
2023-05-12T02:55:59.485Z,5.24
2023-05-12T02:58:26.380Z,5.17
2023-05-12T03:01:03.168Z,5.11
2023-05-12T03:03:37.067Z,5.17
2023-05-12T03:06:04.779Z,5.29
2023-05-12T03:08:31.820Z,5.49
2023-05-12T03:10:58.854Z,5.78
2023-05-12T03:13:26.094Z,6.09
2023-05-12T03:15:52.862Z,6.44
2023-05-12T03:18:19.809Z,6.81
2023-05-12T03:20:47.121Z,7.11
2023-05-12T03:23:13.882Z,7.44
2023-05-12T03:25:40.675Z,7.72
2023-05-12T03:28:08.069Z,7.83
2023-05-12T03:30:35.053Z,8.02
2023-05-12T03:33:01.943Z,8.44
2023-05-12T03:35:28.979Z,8.92
2023-05-12T03:37:55.872Z,9.34
2023-05-12T03:40:22.931Z,9.84
2023-05-12T03:42:50.197Z,10.43
2023-05-12T03:45:18.049Z,10.95
2023-05-12T03:47:44.962Z,11.38
2023-05-12T03:50:12.833Z,11.86
2023-05-12T03:52:41.349Z,12.34
2023-05-12T03:55:09.312Z,12.67
2023-05-12T03:57:37.847Z,12.85
2023-05-12T04:00:05.861Z,12.98
2023-05-12T04:02:39.724Z,13.21
2023-05-12T04:05:08.651Z,13.66
2023-05-12T04:07:35.913Z,14.19
2023-05-12T04:10:03.221Z,14.64
2023-05-12T04:12:30.157Z,15.08
2023-05-12T04:14:57.637Z,15.46
2023-05-12T04:17:24.556Z,15.72
2023-05-12T04:19:53.578Z,16.14
2023-05-12T04:22:20.884Z,16.70
2023-05-12T04:24:48.428Z,17.27
2023-05-12T04:27:15.226Z,17.82
2023-05-12T04:29:42.124Z,18.28
2023-05-12T04:32:09.322Z,18.78
2023-05-12T04:34:36.478Z,19.11
2023-05-12T04:37:03.361Z,19.40
2023-05-12T04:39:30.256Z,19.75
2023-05-12T04:41:57.832Z,20.12
2023-05-12T04:44:24.944Z,20.47
2023-05-12T04:46:54.193Z,20.78
2023-05-12T04:49:21.198Z,21.05
2023-05-12T04:51:48.136Z,21.17
2023-05-12T04:54:15.046Z,21.26
2023-05-12T04:56:42.901Z,21.27
2023-05-12T04:59:09.855Z,21.20
2023-05-12T05:01:36.597Z,20.94
2023-05-12T05:04:03.855Z,20.42
2023-05-12T05:06:30.862Z,19.78
2023-05-12T05:08:58.496Z,19.09
2023-05-12T05:11:25.956Z,18.38
2023-05-12T05:13:52.731Z,17.76
2023-05-12T05:16:20.187Z,17.20
2023-05-12T05:18:47.812Z,16.71
2023-05-12T05:21:14.670Z,16.25
2023-05-12T05:23:41.803Z,15.84
2023-05-12T05:26:09.229Z,15.51
2023-05-12T05:28:36.640Z,15.23
2023-05-12T05:31:04.889Z,14.96
2023-05-12T05:33:32.329Z,14.69
2023-05-12T05:36:00.043Z,14.42
2023-05-12T05:38:27.522Z,14.18
2023-05-12T05:40:54.758Z,13.98
2023-05-12T05:43:23.466Z,13.82
2023-05-12T05:45:51.492Z,13.71
2023-05-12T05:48:20.045Z,13.62
2023-05-12T05:50:47.260Z,13.55
2023-05-12T05:53:14.347Z,13.50
2023-05-12T05:55:41.387Z,13.45
2023-05-12T05:58:08.649Z,13.44
2023-05-12T06:00:35.505Z,13.42
2023-05-12T06:03:02.477Z,13.40
2023-05-12T06:05:30.720Z,13.42
2023-05-12T06:07:57.504Z,13.46
2023-05-12T06:10:25.613Z,13.53
2023-05-12T06:12:52.533Z,13.62
2023-05-12T06:15:21.464Z,13.69
2023-05-12T06:17:49.715Z,13.77
2023-05-12T06:20:16.657Z,13.82
2023-05-12T06:22:45.305Z,13.87
2023-05-12T06:25:13.315Z,13.91
2023-05-12T06:27:40.166Z,13.97
2023-05-12T06:30:07.916Z,14.01
2023-05-12T06:32:34.823Z,14.07
2023-05-12T06:35:02.157Z,14.18
2023-05-12T06:37:29.090Z,14.31
2023-05-12T06:39:57.948Z,14.42
2023-05-12T06:42:26.759Z,14.51
2023-05-12T06:44:55.990Z,14.62
2023-05-12T06:47:22.799Z,14.75
2023-05-12T06:49:50.332Z,14.85
2023-05-12T06:52:17.218Z,14.94
2023-05-12T06:54:44.099Z,15.02
2023-05-12T06:57:10.963Z,15.13
2023-05-12T06:59:37.817Z,15.22
2023-05-12T07:02:04.873Z,15.36
2023-05-12T07:04:31.732Z,15.48
2023-05-12T07:06:58.856Z,15.58
2023-05-12T07:09:25.656Z,15.67
2023-05-12T07:11:52.495Z,15.75
2023-05-12T07:14:19.411Z,15.83
2023-05-12T07:16:46.900Z,15.89
2023-05-12T07:19:13.781Z,15.92
2023-05-12T07:21:40.939Z,15.95
2023-05-12T07:24:07.796Z,16.00
2023-05-12T07:26:34.667Z,16.05
2023-05-12T07:31:20.707Z,16.22
2023-05-12T07:33:48.036Z,16.29
2023-05-12T07:36:15.057Z,16.32
2023-05-12T07:38:44.842Z,16.34
2023-05-12T07:41:11.898Z,16.32
2023-05-12T07:43:38.880Z,16.34
2023-05-12T07:46:20.904Z,16.45
2023-05-12T07:48:47.952Z,16.58
2023-05-12T07:51:15.026Z,16.71
2023-05-12T07:53:41.985Z,16.81
2023-05-12T07:56:08.934Z,16.92
2023-05-12T07:58:35.871Z,17.02
2023-05-12T08:01:06.028Z,17.12
2023-05-12T08:03:33.621Z,17.27
2023-05-12T08:06:00.554Z,17.40
2023-05-12T08:08:27.392Z,17.47
2023-05-12T08:10:54.223Z,17.51
2023-05-12T08:13:21.121Z,17.54
2023-05-12T08:15:49.418Z,17.50
2023-05-12T08:18:16.256Z,17.40
2023-05-12T08:20:43.213Z,17.28
2023-05-12T08:23:10.045Z,17.13
2023-05-12T08:25:37.323Z,17.02
2023-05-12T08:28:04.619Z,16.91
2023-05-12T08:30:31.340Z,16.82
2023-05-12T08:32:58.274Z,16.76
2023-05-12T08:35:25.162Z,16.69
2023-05-12T08:37:52.804Z,16.68
2023-05-12T08:40:25.796Z,16.74
2023-05-12T08:43:13.772Z,16.79
2023-05-12T08:45:40.711Z,16.84
2023-05-12T08:48:11.458Z,16.90
2023-05-12T08:50:38.862Z,16.99
2023-05-12T08:53:05.767Z,17.05
2023-05-12T08:55:34.324Z,17.12
2023-05-12T08:58:03.059Z,17.23
2023-05-12T09:00:31.249Z,17.31
2023-05-12T09:02:59.480Z,17.38
2023-05-12T09:05:27.345Z,17.41
2023-05-12T09:07:55.331Z,17.40
2023-05-12T09:10:34.224Z,17.40
2023-05-12T09:13:37.958Z,17.36
2023-05-12T09:16:04.863Z,17.32
2023-05-12T09:18:44.495Z,17.37
2023-05-12T09:21:11.977Z,17.40
2023-05-12T09:23:38.834Z,17.40
2023-05-12T09:26:05.618Z,17.38
2023-05-12T09:28:39.014Z,17.41
2023-05-12T09:31:16.261Z,17.46
2023-05-12T09:33:43.075Z,17.49
2023-05-12T09:36:09.915Z,17.44
2023-05-12T09:38:36.760Z,17.33
2023-05-12T09:41:03.774Z,17.28
2023-05-12T09:43:32.231Z,17.24
2023-05-12T09:46:05.814Z,17.19
2023-05-12T09:48:33.289Z,17.16
2023-05-12T09:51:00.200Z,17.15
2023-05-12T09:53:27.242Z,17.12
2023-05-12T09:55:54.079Z,17.10
2023-05-12T09:58:21.052Z,17.07
2023-05-12T10:03:18.226Z,17.00
2023-05-12T10:05:56.668Z,16.95
2023-05-12T10:08:32.379Z,16.92
2023-05-12T10:10:59.857Z,16.85
2023-05-12T10:13:26.842Z,16.85
2023-05-12T10:15:55.997Z,16.89
2023-05-12T10:18:23.414Z,16.97
2023-05-12T10:20:50.276Z,17.00
2023-05-12T10:23:17.256Z,17.03
2023-05-12T10:25:44.151Z,16.99
2023-05-12T10:28:11.874Z,16.96
2023-05-12T10:30:39.345Z,16.96
2023-05-12T10:33:08.705Z,16.94
2023-05-12T10:35:36.443Z,16.92
2023-05-12T10:38:07.617Z,16.87
2023-05-12T10:40:34.393Z,16.77
2023-05-12T10:43:01.539Z,16.69
2023-05-12T10:45:28.399Z,16.60
2023-05-12T10:48:05.241Z,16.52
2023-05-12T10:50:32.052Z,16.46
2023-05-12T10:52:58.965Z,16.43
2023-05-12T10:55:37.023Z,16.38
2023-05-12T10:58:05.682Z,16.33
2023-05-12T11:00:33.070Z,16.30
2023-05-12T11:03:08.010Z,16.30
2023-05-12T11:05:37.782Z,16.38
2023-05-12T11:08:05.364Z,16.51
2023-05-12T11:10:33.568Z,16.66
2023-05-12T11:13:24.426Z,16.84
2023-05-12T11:15:56.869Z,17.07
2023-05-12T11:18:23.922Z,17.25
2023-05-12T11:20:55.238Z,17.36
2023-05-12T11:23:34.913Z,17.46
2023-05-12T11:26:20.207Z,17.55
2023-05-12T11:28:47.731Z,17.61
2023-05-12T11:31:21.369Z,17.64
2023-05-12T11:33:53.712Z,17.65
2023-05-12T11:36:25.599Z,17.63
2023-05-12T11:38:52.391Z,17.62
2023-05-12T11:41:26.268Z,17.66
2023-05-12T11:43:53.848Z,17.72
2023-05-12T11:46:27.658Z,17.81
2023-05-12T11:48:59.171Z,17.90
2023-05-12T11:51:26.232Z,17.99
2023-05-12T11:53:53.454Z,18.10
2023-05-12T12:01:44.506Z,18.59
2023-05-12T12:04:11.324Z,18.66
2023-05-12T12:06:45.416Z,18.67
2023-05-12T12:09:12.536Z,18.65
2023-05-12T12:11:39.296Z,18.60
2023-05-12T12:14:06.247Z,18.53
2023-05-12T12:16:33.188Z,18.48
2023-05-12T12:19:00.259Z,18.44
2023-05-12T12:21:27.126Z,18.42
2023-05-12T12:23:54.096Z,18.44
2023-05-12T12:26:21.650Z,18.54
2023-05-12T12:28:48.862Z,18.65
2023-05-12T12:31:16.060Z,18.71
2023-05-12T12:33:43.086Z,18.63
2023-05-12T12:36:10.012Z,18.49
2023-05-12T12:38:36.907Z,18.31
2023-05-12T12:41:04.454Z,18.09
2023-05-12T12:43:31.260Z,17.77
2023-05-12T12:45:58.231Z,17.48
2023-05-12T12:48:26.707Z,17.28
2023-05-12T12:50:53.959Z,17.09
2023-05-12T12:53:20.974Z,16.95
2023-05-12T12:55:47.778Z,16.83
2023-05-12T12:58:14.569Z,16.72
2023-05-12T13:00:41.371Z,16.64
2023-05-12T13:03:08.368Z,16.62
2023-05-12T13:05:35.478Z,16.60
2023-05-12T13:08:02.299Z,16.57
2023-05-12T13:10:29.300Z,16.55
2023-05-12T13:12:56.191Z,16.53
2023-05-12T13:15:23.363Z,16.52
2023-05-12T13:17:50.422Z,16.53
2023-05-12T13:20:17.282Z,16.55
2023-05-12T13:22:44.819Z,16.54
2023-05-12T13:25:11.751Z,16.53
2023-05-12T13:27:38.705Z,16.54
2023-05-12T13:30:10.900Z,16.58
2023-05-12T13:32:39.638Z,16.65
2023-05-12T13:35:06.848Z,16.73
2023-05-12T13:37:33.664Z,16.86
2023-05-12T13:40:00.498Z,16.97
2023-05-12T13:42:27.420Z,17.07
2023-05-12T13:44:54.199Z,17.15
2023-05-12T13:47:21.175Z,17.22
2023-05-12T13:49:48.155Z,17.26
2023-05-12T13:52:15.612Z,17.32
2023-05-12T13:54:42.435Z,17.46
2023-05-12T13:57:09.290Z,17.61
2023-05-12T13:59:36.339Z,17.70
2023-05-12T14:02:03.256Z,17.73
2023-05-12T14:04:30.435Z,17.70
2023-05-12T14:06:57.690Z,17.68
2023-05-12T14:09:25.004Z,17.65
2023-05-12T14:11:52.079Z,17.67
2023-05-12T14:14:18.865Z,17.67
2023-05-12T14:16:45.897Z,17.67
2023-05-12T14:19:12.826Z,17.71
2023-05-12T14:21:41.380Z,17.75
2023-05-12T14:24:09.180Z,17.78
2023-05-12T14:26:36.093Z,17.81
2023-05-12T14:29:03.069Z,17.83
2023-05-12T14:31:30.444Z,17.82
2023-05-12T14:33:57.393Z,17.80
2023-05-12T14:36:24.202Z,17.77
2023-05-12T14:38:50.951Z,17.76
2023-05-12T14:41:17.783Z,17.75
2023-05-12T14:43:44.734Z,17.73
2023-05-12T14:46:12.068Z,17.68
2023-05-12T14:48:39.234Z,17.64
2023-05-12T14:51:06.024Z,17.62
2023-05-12T14:53:33.088Z,17.57
2023-05-12T14:55:59.957Z,17.50
2023-05-12T14:58:27.125Z,17.45
2023-05-12T15:00:54.044Z,17.44
2023-05-12T15:03:21.283Z,17.43
2023-05-12T15:08:21.684Z,17.38
2023-05-12T15:10:48.702Z,17.35
2023-05-12T15:13:17.829Z,17.35
2023-05-12T15:15:45.000Z,17.36
2023-05-12T15:18:11.846Z,17.37
2023-05-12T15:20:38.837Z,17.34
2023-05-12T15:23:05.844Z,17.31
2023-05-12T15:25:33.055Z,17.28
2023-05-12T15:27:59.860Z,17.26
2023-05-12T15:30:26.727Z,17.23
2023-05-12T15:32:53.660Z,17.21
2023-05-12T15:35:20.674Z,17.20
2023-05-12T15:37:47.650Z,17.14
2023-05-12T15:40:14.815Z,17.09
2023-05-12T15:42:41.600Z,17.03
2023-05-12T15:45:09.732Z,16.99
2023-05-12T15:47:36.872Z,16.95
2023-05-12T15:50:04.517Z,16.93
2023-05-12T15:52:31.395Z,16.91
2023-05-12T15:54:58.307Z,16.90
2023-05-12T15:57:25.004Z,16.90
2023-05-12T15:59:57.669Z,16.90
2023-05-12T16:02:24.730Z,16.88
2023-05-12T16:04:51.682Z,16.86
2023-05-12T16:07:18.504Z,16.82
2023-05-12T16:09:45.603Z,16.76
2023-05-12T16:12:12.379Z,16.70
2023-05-12T16:14:39.298Z,16.64
2023-05-12T16:17:06.023Z,16.56
2023-05-12T16:19:32.759Z,16.47
2023-05-12T16:22:00.431Z,16.40
2023-05-12T16:24:28.803Z,16.34
2023-05-12T16:26:56.285Z,16.29
2023-05-12T16:29:22.988Z,16.23
2023-05-12T16:31:49.946Z,16.18
2023-05-12T16:34:16.850Z,16.11
2023-05-12T16:36:44.224Z,16.06
2023-05-12T16:39:11.104Z,16.01
2023-05-12T16:41:37.882Z,15.97
2023-05-12T16:44:05.210Z,15.92
2023-05-12T16:46:32.847Z,15.88
2023-05-12T16:48:59.963Z,15.82
2023-05-12T16:51:30.471Z,15.77
2023-05-12T16:53:57.854Z,15.72
2023-05-12T16:56:25.964Z,15.68
2023-05-12T16:58:52.940Z,15.64
2023-05-12T17:01:19.748Z,15.60
2023-05-12T17:03:46.997Z,15.54
2023-05-12T17:06:13.918Z,15.48
2023-05-12T17:08:41.349Z,15.42
2023-05-12T17:11:08.370Z,15.36
2023-05-12T17:13:36.862Z,15.30
2023-05-12T17:16:04.371Z,15.25
2023-05-12T17:18:31.509Z,15.18
2023-05-12T17:20:58.923Z,15.12
2023-05-12T17:23:26.856Z,15.05
2023-05-12T17:25:54.341Z,14.97
2023-05-12T17:28:21.370Z,14.90
2023-05-12T17:30:48.621Z,14.82
2023-05-12T17:33:16.518Z,14.73
2023-05-12T17:35:44.602Z,14.63
2023-05-12T17:38:16.270Z,14.51
2023-05-12T17:40:43.270Z,14.39
2023-05-12T17:43:09.960Z,14.27
2023-05-12T17:45:36.784Z,14.15
2023-05-12T17:48:04.165Z,14.03
2023-05-12T17:50:31.046Z,13.92
2023-05-12T17:52:58.194Z,13.79
2023-05-12T17:55:25.116Z,13.67
2023-05-12T17:57:52.053Z,13.55
2023-05-12T18:00:19.096Z,13.42
2023-05-12T18:02:46.278Z,13.30
2023-05-12T18:05:13.104Z,13.20
2023-05-12T18:07:40.134Z,13.09
2023-05-12T18:10:08.548Z,12.99
2023-05-12T18:12:36.141Z,12.89
2023-05-12T18:15:03.882Z,12.79
2023-05-12T18:17:30.741Z,12.70
2023-05-12T18:19:57.761Z,12.60
2023-05-12T18:22:24.567Z,12.49
2023-05-12T18:24:51.447Z,12.38
2023-05-12T18:27:18.163Z,12.24
2023-05-12T18:29:45.029Z,12.13
2023-05-12T18:32:11.789Z,12.01
2023-05-12T18:34:38.828Z,11.90
2023-05-12T18:37:08.884Z,11.78
2023-05-12T18:39:39.475Z,11.66
2023-05-12T18:42:08.164Z,11.55
2023-05-12T18:44:34.903Z,11.46
2023-05-12T18:47:01.709Z,11.36
2023-05-12T18:49:28.501Z,11.24
2023-05-12T18:51:55.281Z,11.13
2023-05-12T18:54:22.072Z,11.04
2023-05-12T18:56:50.825Z,10.95
2023-05-12T18:59:18.445Z,10.83
2023-05-12T19:01:45.401Z,10.72
2023-05-12T19:04:13.058Z,10.61
2023-05-12T19:06:39.800Z,10.52
2023-05-12T19:09:06.927Z,10.44
2023-05-12T19:11:33.687Z,10.35
2023-05-12T19:14:00.433Z,10.28
2023-05-12T19:16:31.935Z,10.20
2023-05-12T19:19:00.539Z,10.13
2023-05-12T19:21:27.920Z,10.07
2023-05-12T19:23:57.849Z,10.00
2023-05-12T19:26:24.704Z,9.94
2023-05-12T19:28:51.477Z,9.88
2023-05-12T19:31:18.217Z,9.83
2023-05-12T19:33:45.417Z,9.78
2023-05-12T19:36:12.350Z,9.74
2023-05-12T19:38:43.564Z,9.68
2023-05-12T19:41:10.999Z,9.63
2023-05-12T19:43:37.824Z,9.58
2023-05-12T19:49:10.482Z,9.48
2023-05-12T19:51:37.458Z,9.39
2023-05-12T19:54:06.495Z,9.33
2023-05-12T19:56:33.711Z,9.27
2023-05-12T19:59:00.778Z,9.21
2023-05-12T20:01:27.905Z,9.16
2023-05-12T20:03:54.798Z,9.10
2023-05-12T20:06:22.492Z,9.02
2023-05-12T20:08:49.503Z,8.95
2023-05-12T20:11:16.373Z,8.89
2023-05-12T20:13:43.203Z,8.82
2023-05-12T20:16:10.122Z,8.76
2023-05-12T20:18:36.930Z,8.69
2023-05-12T20:21:03.954Z,8.62
2023-05-12T20:23:30.690Z,8.53
2023-05-12T20:25:58.408Z,8.46
2023-05-12T20:28:25.504Z,8.37
2023-05-12T20:30:52.420Z,8.29
2023-05-12T20:33:19.323Z,8.20
2023-05-12T20:35:46.178Z,8.11
2023-05-12T20:38:13.726Z,8.02
2023-05-12T20:40:41.193Z,7.95
2023-05-12T20:43:08.034Z,7.90
2023-05-12T20:45:35.081Z,7.87
2023-05-12T20:48:02.513Z,7.83
2023-05-12T20:50:29.488Z,7.79
2023-05-12T20:52:56.325Z,7.74
2023-05-12T20:55:23.408Z,7.67
2023-05-12T20:57:50.632Z,7.57
2023-05-12T21:00:18.393Z,7.46
2023-05-12T21:02:45.679Z,7.36
2023-05-12T21:05:12.687Z,7.28
2023-05-12T21:07:39.648Z,7.22
2023-05-12T21:10:06.813Z,7.17
2023-05-12T21:12:34.260Z,7.13
2023-05-12T21:15:01.916Z,7.10
2023-05-12T21:17:28.657Z,7.08
2023-05-12T21:19:55.586Z,7.05
2023-05-12T21:22:22.335Z,7.04
2023-05-12T21:24:51.055Z,7.01
2023-05-12T21:27:18.677Z,6.98
2023-05-12T21:29:45.533Z,6.97
2023-05-12T21:32:12.360Z,6.93
2023-05-12T21:34:39.398Z,6.90
2023-05-12T21:37:06.444Z,6.88
2023-05-12T21:39:33.300Z,6.86
2023-05-12T21:42:00.260Z,6.80
2023-05-12T21:44:27.116Z,6.72
2023-05-12T21:46:54.036Z,6.63
2023-05-12T21:49:21.097Z,6.55
2023-05-12T21:51:48.028Z,6.49
2023-05-12T21:54:14.856Z,6.44
2023-05-12T21:56:41.605Z,6.39
2023-05-12T21:59:08.435Z,6.34
2023-05-12T22:01:35.250Z,6.31
2023-05-12T22:04:02.206Z,6.29
2023-05-12T22:06:29.167Z,6.27
2023-05-12T22:08:56.020Z,6.23
2023-05-12T22:11:23.367Z,6.18
2023-05-12T22:13:50.541Z,6.14
2023-05-12T22:16:18.549Z,6.08
2023-05-12T22:18:47.102Z,6.01
2023-05-12T22:21:14.050Z,5.95
2023-05-12T22:23:42.212Z,5.91
2023-05-12T22:26:09.758Z,5.87
2023-05-12T22:28:36.607Z,5.83
2023-05-12T22:31:03.558Z,5.79
2023-05-12T22:33:31.217Z,5.76
2023-05-12T22:35:59.291Z,5.73
2023-05-12T22:38:27.168Z,5.71
2023-05-12T22:40:54.089Z,5.71
2023-05-12T22:43:21.149Z,5.70
2023-05-12T22:45:52.101Z,5.67
2023-05-12T22:48:19.851Z,5.65
2023-05-12T22:50:46.898Z,5.66
2023-05-12T22:53:13.961Z,5.69
2023-05-12T22:55:41.087Z,5.69
2023-05-12T22:58:07.927Z,5.70
2023-05-12T23:00:34.684Z,5.71
2023-05-12T23:03:03.481Z,5.73
2023-05-12T23:05:30.512Z,5.74
2023-05-12T23:07:57.482Z,5.75
2023-05-12T23:10:24.496Z,5.76
2023-05-12T23:12:51.665Z,5.76
2023-05-12T23:15:18.589Z,5.77
2023-05-12T23:17:45.369Z,5.77
2023-05-12T23:20:12.687Z,5.76
2023-05-12T23:22:39.843Z,5.75
2023-05-12T23:25:07.426Z,5.72
2023-05-12T23:27:34.248Z,5.70
2023-05-12T23:30:01.078Z,5.67
2023-05-12T23:32:28.127Z,5.62
2023-05-12T23:34:55.085Z,5.53
2023-05-12T23:37:21.804Z,5.40
2023-05-12T23:39:48.759Z,5.29
2023-05-12T23:42:17.181Z,5.22
2023-05-12T23:44:44.010Z,5.17
2023-05-12T23:47:10.805Z,5.14
2023-05-12T23:49:37.681Z,5.13
2023-05-12T23:52:04.708Z,5.13
2023-05-12T23:54:31.478Z,5.15
2023-05-12T23:56:58.513Z,5.19
2023-05-12T23:59:25.542Z,5.24
